sensor_id;sensor_type;location;lat;lon;timestamp;temperature;humidity
18207;DHT22;9229;52.354;20.886;2023-04-24T00:04:59;11.30;81.30
18207;DHT22;9229;52.354;20.886;2023-04-24T00:10:06;11.20;82.90
18207;DHT22;9229;52.354;20.886;2023-04-24T00:15:09;11.00;83.70
18207;DHT22;9229;52.354;20.886;2023-04-24T00:20:12;10.90;85.20
18207;DHT22;9229;52.354;20.886;2023-04-24T00:25:16;10.80;86.80
18207;DHT22;9229;52.354;20.886;2023-04-24T00:30:18;10.80;88.80
18207;DHT22;9229;52.354;20.886;2023-04-24T00:35:21;10.70;90.50
18207;DHT22;9229;52.354;20.886;2023-04-24T00:40:25;10.70;91.50
18207;DHT22;9229;52.354;20.886;2023-04-24T00:45:28;10.30;92.70
18207;DHT22;9229;52.354;20.886;2023-04-24T00:50:32;10.40;93.60
18207;DHT22;9229;52.354;20.886;2023-04-24T00:55:35;10.30;94.90
18207;DHT22;9229;52.354;20.886;2023-04-24T01:00:39;10.20;96.00
18207;DHT22;9229;52.354;20.886;2023-04-24T01:05:41;10.00;97.30
18207;DHT22;9229;52.354;20.886;2023-04-24T01:10:46;9.90;99.70
18207;DHT22;9229;52.354;20.886;2023-04-24T01:15:49;9.80;99.90
18207;DHT22;9229;52.354;20.886;2023-04-24T01:20:53;9.70;99.90
18207;DHT22;9229;52.354;20.886;2023-04-24T01:26:00;9.70;99.90
18207;DHT22;9229;52.354;20.886;2023-04-24T01:31:02;9.60;99.90
18207;DHT22;9229;52.354;20.886;2023-04-24T01:36:04;9.50;99.90
18207;DHT22;9229;52.354;20.886;2023-04-24T01:41:10;9.50;99.90
18207;DHT22;9229;52.354;20.886;2023-04-24T01:46:12;9.40;99.90
18207;DHT22;9229;52.354;20.886;2023-04-24T01:51:15;9.40;99.90
18207;DHT22;9229;52.354;20.886;2023-04-24T01:56:19;9.30;99.90
18207;DHT22;9229;52.354;20.886;2023-04-24T02:01:21;9.20;99.90
18207;DHT22;9229;52.354;20.886;2023-04-24T02:06:25;9.10;99.90
18207;DHT22;9229;52.354;20.886;2023-04-24T02:11:29;9.00;99.90
18207;DHT22;9229;52.354;20.886;2023-04-24T02:16:31;8.90;99.90
18207;DHT22;9229;52.354;20.886;2023-04-24T02:21:34;8.90;99.90
18207;DHT22;9229;52.354;20.886;2023-04-24T02:26:38;8.90;99.90
18207;DHT22;9229;52.354;20.886;2023-04-24T02:31:40;8.70;99.90
18207;DHT22;9229;52.354;20.886;2023-04-24T02:36:42;8.60;99.90
18207;DHT22;9229;52.354;20.886;2023-04-24T02:41:45;8.60;99.90
18207;DHT22;9229;52.354;20.886;2023-04-24T02:46:47;8.50;99.90
18207;DHT22;9229;52.354;20.886;2023-04-24T02:51:51;8.40;99.90
18207;DHT22;9229;52.354;20.886;2023-04-24T02:56:54;8.40;99.90
18207;DHT22;9229;52.354;20.886;2023-04-24T03:01:57;8.40;99.90
18207;DHT22;9229;52.354;20.886;2023-04-24T03:06:59;8.30;99.90
18207;DHT22;9229;52.354;20.886;2023-04-24T03:12:03;8.30;99.90
18207;DHT22;9229;52.354;20.886;2023-04-24T03:17:05;8.30;99.90
18207;DHT22;9229;52.354;20.886;2023-04-24T03:22:07;8.30;99.90
18207;DHT22;9229;52.354;20.886;2023-04-24T03:27:13;8.30;99.90
18207;DHT22;9229;52.354;20.886;2023-04-24T03:32:28;8.30;99.90
18207;DHT22;9229;52.354;20.886;2023-04-24T03:37:31;8.50;99.90
18207;DHT22;9229;52.354;20.886;2023-04-24T03:42:49;8.70;99.90
18207;DHT22;9229;52.354;20.886;2023-04-24T03:47:53;8.70;99.90
18207;DHT22;9229;52.354;20.886;2023-04-24T03:52:55;8.80;99.90
18207;DHT22;9229;52.354;20.886;2023-04-24T03:58:10;8.90;99.90
18207;DHT22;9229;52.354;20.886;2023-04-24T04:03:14;9.10;99.90
18207;DHT22;9229;52.354;20.886;2023-04-24T04:08:17;9.10;99.90
18207;DHT22;9229;52.354;20.886;2023-04-24T04:13:21;9.30;99.90
18207;DHT22;9229;52.354;20.886;2023-04-24T04:18:24;9.60;99.90
18207;DHT22;9229;52.354;20.886;2023-04-24T04:23:26;9.80;99.90
18207;DHT22;9229;52.354;20.886;2023-04-24T04:29:08;10.00;99.90
18207;DHT22;9229;52.354;20.886;2023-04-24T04:34:14;10.40;99.90
18207;DHT22;9229;52.354;20.886;2023-04-24T04:39:17;10.50;99.90
18207;DHT22;9229;52.354;20.886;2023-04-24T04:44:42;10.70;99.90
18207;DHT22;9229;52.354;20.886;2023-04-24T04:49:51;10.60;99.90
18207;DHT22;9229;52.354;20.886;2023-04-24T04:54:57;10.90;99.90
18207;DHT22;9229;52.354;20.886;2023-04-24T05:00:11;11.10;99.90
18207;DHT22;9229;52.354;20.886;2023-04-24T05:05:22;11.40;99.90
18207;DHT22;9229;52.354;20.886;2023-04-24T05:10:24;11.60;99.90
18207;DHT22;9229;52.354;20.886;2023-04-24T05:15:30;12.10;99.90
18207;DHT22;9229;52.354;20.886;2023-04-24T05:20:35;12.60;99.90
18207;DHT22;9229;52.354;20.886;2023-04-24T05:25:37;13.30;99.90
18207;DHT22;9229;52.354;20.886;2023-04-24T05:30:47;13.90;99.90
18207;DHT22;9229;52.354;20.886;2023-04-24T05:35:51;14.50;99.90
18207;DHT22;9229;52.354;20.886;2023-04-24T05:40:55;14.90;99.90
18207;DHT22;9229;52.354;20.886;2023-04-24T05:45:59;15.40;99.90
18207;DHT22;9229;52.354;20.886;2023-04-24T05:51:01;15.60;98.00
18207;DHT22;9229;52.354;20.886;2023-04-24T05:56:03;15.80;96.20
18207;DHT22;9229;52.354;20.886;2023-04-24T06:01:08;16.00;95.30
18207;DHT22;9229;52.354;20.886;2023-04-24T06:06:11;16.10;94.00
18207;DHT22;9229;52.354;20.886;2023-04-24T06:11:16;16.40;93.10
18207;DHT22;9229;52.354;20.886;2023-04-24T06:16:20;16.50;92.80
18207;DHT22;9229;52.354;20.886;2023-04-24T06:21:29;16.60;92.40
18207;DHT22;9229;52.354;20.886;2023-04-24T06:26:32;17.50;93.70
18207;DHT22;9229;52.354;20.886;2023-04-24T06:31:39;18.90;91.70
18207;DHT22;9229;52.354;20.886;2023-04-24T06:36:41;20.20;84.20
18207;DHT22;9229;52.354;20.886;2023-04-24T06:41:43;20.70;77.50
18207;DHT22;9229;52.354;20.886;2023-04-24T06:46:55;20.90;77.40
18207;DHT22;9229;52.354;20.886;2023-04-24T06:51:57;21.10;73.80
18207;DHT22;9229;52.354;20.886;2023-04-24T06:56:59;21.80;70.70
18207;DHT22;9229;52.354;20.886;2023-04-24T07:02:04;22.30;69.90
18207;DHT22;9229;52.354;20.886;2023-04-24T07:07:06;23.00;65.80
18207;DHT22;9229;52.354;20.886;2023-04-24T07:12:10;23.70;64.50
18207;DHT22;9229;52.354;20.886;2023-04-24T07:17:18;24.60;61.70
18207;DHT22;9229;52.354;20.886;2023-04-24T07:22:23;25.50;59.40
18207;DHT22;9229;52.354;20.886;2023-04-24T07:27:26;26.30;56.60
18207;DHT22;9229;52.354;20.886;2023-04-24T07:32:31;26.50;56.00
18207;DHT22;9229;52.354;20.886;2023-04-24T07:37:33;26.80;53.70
18207;DHT22;9229;52.354;20.886;2023-04-24T07:42:35;26.30;54.80
18207;DHT22;9229;52.354;20.886;2023-04-24T07:47:41;26.00;53.50
18207;DHT22;9229;52.354;20.886;2023-04-24T07:52:44;26.10;54.30
18207;DHT22;9229;52.354;20.886;2023-04-24T07:57:46;26.40;54.50
18207;DHT22;9229;52.354;20.886;2023-04-24T08:02:51;26.60;54.60
18207;DHT22;9229;52.354;20.886;2023-04-24T08:07:58;27.30;52.30
18207;DHT22;9229;52.354;20.886;2023-04-24T08:13:01;28.80;49.00
18207;DHT22;9229;52.354;20.886;2023-04-24T08:18:06;28.60;47.30
18207;DHT22;9229;52.354;20.886;2023-04-24T08:23:10;27.80;49.20
18207;DHT22;9229;52.354;20.886;2023-04-24T08:28:13;28.90;47.50
18207;DHT22;9229;52.354;20.886;2023-04-24T08:33:22;28.90;46.90
18207;DHT22;9229;52.354;20.886;2023-04-24T08:38:24;28.10;47.10
18207;DHT22;9229;52.354;20.886;2023-04-24T08:43:27;27.60;48.00
18207;DHT22;9229;52.354;20.886;2023-04-24T08:48:31;27.50;49.10
18207;DHT22;9229;52.354;20.886;2023-04-24T08:53:33;27.50;49.10
18207;DHT22;9229;52.354;20.886;2023-04-24T08:58:36;27.80;48.80
18207;DHT22;9229;52.354;20.886;2023-04-24T09:03:40;27.70;48.20
18207;DHT22;9229;52.354;20.886;2023-04-24T09:08:42;27.40;49.00
18207;DHT22;9229;52.354;20.886;2023-04-24T09:13:45;27.50;49.30
18207;DHT22;9229;52.354;20.886;2023-04-24T09:18:50;27.40;49.40
18207;DHT22;9229;52.354;20.886;2023-04-24T09:23:59;27.40;49.70
18207;DHT22;9229;52.354;20.886;2023-04-24T09:29:02;28.40;48.50
18207;DHT22;9229;52.354;20.886;2023-04-24T09:34:06;27.90;48.20
18207;DHT22;9229;52.354;20.886;2023-04-24T09:39:10;27.40;49.50
18207;DHT22;9229;52.354;20.886;2023-04-24T09:44:14;27.10;50.30
18207;DHT22;9229;52.354;20.886;2023-04-24T09:49:23;27.90;50.10
18207;DHT22;9229;52.354;20.886;2023-04-24T09:54:25;28.40;48.00
18207;DHT22;9229;52.354;20.886;2023-04-24T09:59:28;28.40;48.80
18207;DHT22;9229;52.354;20.886;2023-04-24T10:04:32;30.50;45.50
18207;DHT22;9229;52.354;20.886;2023-04-24T10:09:34;32.20;43.40
18207;DHT22;9229;52.354;20.886;2023-04-24T10:14:36;33.70;40.70
18207;DHT22;9229;52.354;20.886;2023-04-24T10:19:42;34.20;39.40
18207;DHT22;9229;52.354;20.886;2023-04-24T10:24:45;35.00;38.10
18207;DHT22;9229;52.354;20.886;2023-04-24T10:29:50;35.20;36.70
18207;DHT22;9229;52.354;20.886;2023-04-24T10:34:55;35.30;35.80
18207;DHT22;9229;52.354;20.886;2023-04-24T10:39:59;35.80;34.70
18207;DHT22;9229;52.354;20.886;2023-04-24T10:45:05;35.90;33.00
18207;DHT22;9229;52.354;20.886;2023-04-24T10:50:10;34.60;33.60
18207;DHT22;9229;52.354;20.886;2023-04-24T10:55:13;33.80;33.60
18207;DHT22;9229;52.354;20.886;2023-04-24T11:00:20;34.10;34.20
18207;DHT22;9229;52.354;20.886;2023-04-24T11:05:49;34.50;33.40
18207;DHT22;9229;52.354;20.886;2023-04-24T11:10:56;33.20;32.40
18207;DHT22;9229;52.354;20.886;2023-04-24T11:16:15;33.00;34.00
18207;DHT22;9229;52.354;20.886;2023-04-24T11:21:24;33.80;35.20
18207;DHT22;9229;52.354;20.886;2023-04-24T11:26:26;33.00;33.70
18207;DHT22;9229;52.354;20.886;2023-04-24T11:31:37;31.80;35.90
18207;DHT22;9229;52.354;20.886;2023-04-24T11:36:42;30.90;37.40
18207;DHT22;9229;52.354;20.886;2023-04-24T11:41:45;30.90;38.50
18207;DHT22;9229;52.354;20.886;2023-04-24T11:46:47;31.60;37.20
18207;DHT22;9229;52.354;20.886;2023-04-24T11:51:55;31.40;37.10
18207;DHT22;9229;52.354;20.886;2023-04-24T11:56:57;31.50;35.60
18207;DHT22;9229;52.354;20.886;2023-04-24T12:02:00;31.80;34.60
18207;DHT22;9229;52.354;20.886;2023-04-24T12:07:04;29.80;35.20
18207;DHT22;9229;52.354;20.886;2023-04-24T12:12:08;28.10;37.30
18207;DHT22;9229;52.354;20.886;2023-04-24T12:17:10;26.80;38.70
18207;DHT22;9229;52.354;20.886;2023-04-24T12:22:14;27.20;38.30
18207;DHT22;9229;52.354;20.886;2023-04-24T12:27:19;26.70;38.50
18207;DHT22;9229;52.354;20.886;2023-04-24T12:32:22;26.10;40.00
18207;DHT22;9229;52.354;20.886;2023-04-24T12:37:33;25.40;40.60
18207;DHT22;9229;52.354;20.886;2023-04-24T12:42:43;25.00;41.30
18207;DHT22;9229;52.354;20.886;2023-04-24T12:47:46;24.80;40.90
18207;DHT22;9229;52.354;20.886;2023-04-24T12:52:49;25.10;41.50
18207;DHT22;9229;52.354;20.886;2023-04-24T12:57:51;26.40;38.50
18207;DHT22;9229;52.354;20.886;2023-04-24T13:02:56;26.00;39.20
18207;DHT22;9229;52.354;20.886;2023-04-24T13:07:59;25.30;40.00
18207;DHT22;9229;52.354;20.886;2023-04-24T13:13:01;24.20;45.00
18207;DHT22;9229;52.354;20.886;2023-04-24T13:18:04;23.10;47.80
18207;DHT22;9229;52.354;20.886;2023-04-24T13:23:07;22.20;49.40
18207;DHT22;9229;52.354;20.886;2023-04-24T13:28:10;21.30;50.90
18207;DHT22;9229;52.354;20.886;2023-04-24T13:33:12;20.80;51.90
18207;DHT22;9229;52.354;20.886;2023-04-24T13:38:15;20.50;52.60
18207;DHT22;9229;52.354;20.886;2023-04-24T13:43:18;20.20;52.80
18207;DHT22;9229;52.354;20.886;2023-04-24T13:48:20;20.10;51.90
18207;DHT22;9229;52.354;20.886;2023-04-24T13:53:23;20.10;51.20
18207;DHT22;9229;52.354;20.886;2023-04-24T13:58:25;20.20;51.30
18207;DHT22;9229;52.354;20.886;2023-04-24T14:03:27;20.40;50.90
18207;DHT22;9229;52.354;20.886;2023-04-24T14:08:33;20.50;50.80
18207;DHT22;9229;52.354;20.886;2023-04-24T14:13:35;20.80;50.20
18207;DHT22;9229;52.354;20.886;2023-04-24T14:18:38;21.10;49.20
18207;DHT22;9229;52.354;20.886;2023-04-24T14:23:41;21.50;48.10
18207;DHT22;9229;52.354;20.886;2023-04-24T14:28:44;21.90;47.30
18207;DHT22;9229;52.354;20.886;2023-04-24T14:33:46;22.10;46.50
18207;DHT22;9229;52.354;20.886;2023-04-24T14:38:51;22.20;46.00
18207;DHT22;9229;52.354;20.886;2023-04-24T14:43:53;22.30;45.60
18207;DHT22;9229;52.354;20.886;2023-04-24T14:48:57;22.50;46.30
18207;DHT22;9229;52.354;20.886;2023-04-24T14:54:00;22.60;44.40
18207;DHT22;9229;52.354;20.886;2023-04-24T14:59:04;22.40;44.80
18207;DHT22;9229;52.354;20.886;2023-04-24T15:04:07;22.10;45.80
18207;DHT22;9229;52.354;20.886;2023-04-24T15:09:11;21.90;46.60
18207;DHT22;9229;52.354;20.886;2023-04-24T15:14:13;21.70;46.50
18207;DHT22;9229;52.354;20.886;2023-04-24T15:19:16;21.60;45.80
18207;DHT22;9229;52.354;20.886;2023-04-24T15:24:19;21.80;45.30
18207;DHT22;9229;52.354;20.886;2023-04-24T15:29:21;21.70;44.70
18207;DHT22;9229;52.354;20.886;2023-04-24T15:34:24;21.70;45.30
18207;DHT22;9229;52.354;20.886;2023-04-24T15:39:27;21.90;45.10
18207;DHT22;9229;52.354;20.886;2023-04-24T15:44:29;22.10;45.30
18207;DHT22;9229;52.354;20.886;2023-04-24T15:49:32;22.30;46.40
18207;DHT22;9229;52.354;20.886;2023-04-24T15:54:36;22.40;45.60
18207;DHT22;9229;52.354;20.886;2023-04-24T15:59:39;22.10;45.50
18207;DHT22;9229;52.354;20.886;2023-04-24T16:04:41;22.10;45.90
18207;DHT22;9229;52.354;20.886;2023-04-24T16:09:45;21.90;45.40
18207;DHT22;9229;52.354;20.886;2023-04-24T16:14:47;21.90;45.20
18207;DHT22;9229;52.354;20.886;2023-04-24T16:19:49;21.70;45.30
18207;DHT22;9229;52.354;20.886;2023-04-24T16:24:53;21.60;44.60
18207;DHT22;9229;52.354;20.886;2023-04-24T16:29:55;21.60;45.20
18207;DHT22;9229;52.354;20.886;2023-04-24T16:34:59;21.40;44.00
18207;DHT22;9229;52.354;20.886;2023-04-24T16:40:03;21.30;44.10
18207;DHT22;9229;52.354;20.886;2023-04-24T16:45:10;21.10;43.50
18207;DHT22;9229;52.354;20.886;2023-04-24T16:50:12;20.90;44.90
18207;DHT22;9229;52.354;20.886;2023-04-24T16:55:18;20.70;45.90
18207;DHT22;9229;52.354;20.886;2023-04-24T17:00:21;20.50;46.50
18207;DHT22;9229;52.354;20.886;2023-04-24T17:05:23;20.20;46.70
18207;DHT22;9229;52.354;20.886;2023-04-24T17:10:27;20.00;47.20
18207;DHT22;9229;52.354;20.886;2023-04-24T17:15:29;19.80;47.40
18207;DHT22;9229;52.354;20.886;2023-04-24T17:20:34;19.60;47.70
18207;DHT22;9229;52.354;20.886;2023-04-24T17:25:38;19.40;47.80
18207;DHT22;9229;52.354;20.886;2023-04-24T17:30:50;19.20;48.80
18207;DHT22;9229;52.354;20.886;2023-04-24T17:35:54;18.70;54.10
18207;DHT22;9229;52.354;20.886;2023-04-24T17:40:58;18.70;54.80
18207;DHT22;9229;52.354;20.886;2023-04-24T17:46:01;18.40;56.90
18207;DHT22;9229;52.354;20.886;2023-04-24T17:51:03;18.10;58.80
18207;DHT22;9229;52.354;20.886;2023-04-24T17:56:07;17.90;60.70
18207;DHT22;9229;52.354;20.886;2023-04-24T18:01:09;17.70;62.90
18207;DHT22;9229;52.354;20.886;2023-04-24T18:06:11;17.40;64.90
18207;DHT22;9229;52.354;20.886;2023-04-24T18:11:19;17.10;66.40
18207;DHT22;9229;52.354;20.886;2023-04-24T18:16:21;17.00;67.90
18207;DHT22;9229;52.354;20.886;2023-04-24T18:21:23;16.80;69.00
18207;DHT22;9229;52.354;20.886;2023-04-24T18:26:27;16.60;70.50
18207;DHT22;9229;52.354;20.886;2023-04-24T18:31:29;16.40;71.20
18207;DHT22;9229;52.354;20.886;2023-04-24T18:36:32;16.30;72.20
18207;DHT22;9229;52.354;20.886;2023-04-24T18:41:35;16.10;73.50
18207;DHT22;9229;52.354;20.886;2023-04-24T18:46:38;15.90;74.70
18207;DHT22;9229;52.354;20.886;2023-04-24T18:51:41;15.70;75.70
18207;DHT22;9229;52.354;20.886;2023-04-24T18:56:44;15.50;76.80
18207;DHT22;9229;52.354;20.886;2023-04-24T19:01:46;15.30;77.80
18207;DHT22;9229;52.354;20.886;2023-04-24T19:06:48;15.20;78.40
18207;DHT22;9229;52.354;20.886;2023-04-24T19:11:54;15.10;78.90
18207;DHT22;9229;52.354;20.886;2023-04-24T19:16:57;15.00;78.50
18207;DHT22;9229;52.354;20.886;2023-04-24T19:21:59;14.80;78.00
18207;DHT22;9229;52.354;20.886;2023-04-24T19:27:03;14.80;77.40
18207;DHT22;9229;52.354;20.886;2023-04-24T19:32:05;14.80;76.70
18207;DHT22;9229;52.354;20.886;2023-04-24T19:37:07;14.50;76.00
18207;DHT22;9229;52.354;20.886;2023-04-24T19:42:11;14.40;75.80
18207;DHT22;9229;52.354;20.886;2023-04-24T19:47:13;14.40;74.70
18207;DHT22;9229;52.354;20.886;2023-04-24T19:52:15;14.30;73.10
18207;DHT22;9229;52.354;20.886;2023-04-24T19:57:19;14.40;68.90
18207;DHT22;9229;52.354;20.886;2023-04-24T20:02:21;14.80;65.70
18207;DHT22;9229;52.354;20.886;2023-04-24T20:07:23;15.10;64.20
18207;DHT22;9229;52.354;20.886;2023-04-24T20:12:27;15.20;67.00
18207;DHT22;9229;52.354;20.886;2023-04-24T20:17:29;15.40;68.20
18207;DHT22;9229;52.354;20.886;2023-04-24T20:22:31;15.10;69.50
18207;DHT22;9229;52.354;20.886;2023-04-24T20:27:40;15.10;71.40
18207;DHT22;9229;52.354;20.886;2023-04-24T20:32:42;15.10;73.50
18207;DHT22;9229;52.354;20.886;2023-04-24T20:37:44;15.00;75.00
18207;DHT22;9229;52.354;20.886;2023-04-24T20:42:47;14.90;76.60
18207;DHT22;9229;52.354;20.886;2023-04-24T20:47:51;14.70;78.10
18207;DHT22;9229;52.354;20.886;2023-04-24T20:52:53;14.60;79.00
18207;DHT22;9229;52.354;20.886;2023-04-24T20:57:56;14.60;80.30
18207;DHT22;9229;52.354;20.886;2023-04-24T21:02:59;14.40;81.60
18207;DHT22;9229;52.354;20.886;2023-04-24T21:08:01;14.30;82.90
18207;DHT22;9229;52.354;20.886;2023-04-24T21:13:05;14.10;84.30
18207;DHT22;9229;52.354;20.886;2023-04-24T21:18:07;14.00;85.70
18207;DHT22;9229;52.354;20.886;2023-04-24T21:23:09;13.90;87.00
18207;DHT22;9229;52.354;20.886;2023-04-24T21:28:13;13.70;88.80
18207;DHT22;9229;52.354;20.886;2023-04-24T21:33:15;13.60;90.20
18207;DHT22;9229;52.354;20.886;2023-04-24T21:38:17;13.40;91.30
18207;DHT22;9229;52.354;20.886;2023-04-24T21:43:24;13.30;92.80
18207;DHT22;9229;52.354;20.886;2023-04-24T21:48:26;13.10;94.30
18207;DHT22;9229;52.354;20.886;2023-04-24T21:53:28;13.00;96.20
18207;DHT22;9229;52.354;20.886;2023-04-24T21:58:31;13.00;98.50
18207;DHT22;9229;52.354;20.886;2023-04-24T22:03:33;12.90;99.90
18207;DHT22;9229;52.354;20.886;2023-04-24T22:08:35;12.80;99.90
18207;DHT22;9229;52.354;20.886;2023-04-24T22:13:39;12.70;99.90
18207;DHT22;9229;52.354;20.886;2023-04-24T22:18:41;12.70;99.90
18207;DHT22;9229;52.354;20.886;2023-04-24T22:23:43;12.60;99.90
18207;DHT22;9229;52.354;20.886;2023-04-24T22:28:46;12.50;99.90
18207;DHT22;9229;52.354;20.886;2023-04-24T22:33:48;12.50;99.90
18207;DHT22;9229;52.354;20.886;2023-04-24T22:38:51;12.40;99.90
18207;DHT22;9229;52.354;20.886;2023-04-24T22:43:54;12.30;99.90
18207;DHT22;9229;52.354;20.886;2023-04-24T22:48:56;12.20;99.90
18207;DHT22;9229;52.354;20.886;2023-04-24T22:54:00;12.20;99.90
18207;DHT22;9229;52.354;20.886;2023-04-24T22:59:04;12.10;99.90
18207;DHT22;9229;52.354;20.886;2023-04-24T23:04:06;12.00;99.90
18207;DHT22;9229;52.354;20.886;2023-04-24T23:09:08;12.00;99.90
18207;DHT22;9229;52.354;20.886;2023-04-24T23:14:12;11.90;99.90
18207;DHT22;9229;52.354;20.886;2023-04-24T23:19:14;11.70;99.90
18207;DHT22;9229;52.354;20.886;2023-04-24T23:24:16;11.80;99.90
18207;DHT22;9229;52.354;20.886;2023-04-24T23:29:19;11.70;99.90
18207;DHT22;9229;52.354;20.886;2023-04-24T23:34:22;11.60;99.90
18207;DHT22;9229;52.354;20.886;2023-04-24T23:39:24;11.60;99.90
18207;DHT22;9229;52.354;20.886;2023-04-24T23:44:28;11.50;99.90
18207;DHT22;9229;52.354;20.886;2023-04-24T23:49:30;11.40;99.90
18207;DHT22;9229;52.354;20.886;2023-04-24T23:54:33;11.40;99.90
18207;DHT22;9229;52.354;20.886;2023-04-24T23:59:37;11.30;99.90
